createdAt,value
2017-12-01T00:00:04.961Z,21.5
2017-12-01T00:02:04.641Z,21.4
2017-12-01T00:04:07.856Z,21.4
2017-12-01T00:06:05.773Z,21.5
2017-12-01T00:08:05.499Z,21.4
2017-12-01T00:10:04.782Z,21.4
2017-12-01T00:12:10.583Z,21.4
2017-12-01T00:14:05.279Z,21.4
2017-12-01T00:16:05.027Z,21.4
2017-12-01T00:18:04.994Z,21.4
2017-12-01T00:20:04.763Z,21.4
2017-12-01T00:22:07.508Z,21.4
2017-12-01T00:24:04.709Z,21.4
2017-12-01T00:26:05.387Z,19.8
2017-12-01T00:28:05.075Z,21.4
2017-12-01T00:30:04.832Z,21.4
2017-12-01T00:32:04.794Z,21.4
2017-12-01T00:34:09.786Z,21.4
2017-12-01T00:36:05.515Z,21.4
2017-12-01T00:38:04.803Z,21.4
2017-12-01T00:40:05.547Z,21.4
2017-12-01T00:42:05.314Z,21.4
2017-12-01T00:44:05.009Z,21.4
2017-12-01T00:46:05.197Z,21.4
2017-12-01T00:48:04.976Z,21.4
2017-12-01T00:50:07.297Z,21.4
2017-12-01T00:52:05.026Z,21.4
2017-12-01T00:54:05.519Z,21.4
2017-12-01T00:56:05.270Z,21.4
2017-12-01T00:58:08.090Z,21.4
2017-12-01T01:00:04.756Z,21.4
2017-12-01T01:02:05.442Z,21.4
2017-12-01T01:04:04.714Z,21.4
2017-12-01T01:06:05.444Z,21.4
2017-12-01T01:08:05.222Z,21.4
2017-12-01T01:10:07.368Z,21.4
2017-12-01T01:12:07.853Z,21.4
2017-12-01T01:14:08.059Z,21.4
2017-12-01T01:16:04.982Z,21.4
2017-12-01T01:18:07.551Z,21.4
2017-12-01T01:20:05.559Z,21.4
2017-12-01T01:22:05.315Z,21.4
2017-12-01T01:24:05.111Z,21.4
2017-12-01T01:26:05.158Z,21.4
2017-12-01T01:28:04.848Z,21.3
2017-12-01T01:30:10.396Z,21.3
2017-12-01T01:32:05.077Z,21.3
2017-12-01T01:34:04.875Z,21.3
2017-12-01T01:36:10.650Z,21.3
2017-12-01T01:38:05.335Z,21.3
2017-12-01T01:40:05.058Z,21.3
2017-12-01T01:42:05.312Z,21.3
2017-12-01T01:44:07.541Z,21.3
2017-12-01T01:46:05.222Z,21.3
2017-12-01T01:48:04.902Z,21.3
2017-12-01T01:50:10.667Z,21.2
2017-12-01T01:52:10.457Z,21.2
2017-12-01T01:54:05.178Z,21.2
2017-12-01T01:56:09.968Z,21.2
2017-12-01T01:58:05.208Z,21.2
2017-12-01T02:00:05.002Z,21.2
2017-12-01T02:02:12.333Z,21.2
2017-12-01T02:04:05.075Z,21.2
2017-12-01T02:06:07.341Z,21.2
2017-12-01T02:08:05.115Z,21.2
2017-12-01T02:10:04.858Z,21.2
2017-12-01T02:12:10.648Z,21.2
2017-12-01T02:14:05.366Z,21.2
2017-12-01T02:16:10.115Z,21.2
2017-12-01T02:18:07.536Z,21.2
2017-12-01T02:20:05.204Z,21.2
2017-12-01T02:22:05.496Z,21.2
2017-12-01T02:24:05.277Z,21.2
2017-12-01T02:26:05.191Z,21.2
2017-12-01T02:28:09.997Z,21.2
2017-12-01T02:30:04.683Z,21.1
2017-12-01T02:32:05.501Z,21.2
2017-12-01T02:34:05.253Z,21.1
2017-12-01T02:36:12.617Z,21.1
2017-12-01T02:38:04.892Z,21.1
2017-12-01T02:40:04.623Z,21.1
2017-12-01T02:42:05.364Z,21.2
2017-12-01T02:44:05.120Z,21.1
2017-12-01T02:46:04.803Z,21.1
2017-12-01T02:48:05.560Z,21.1
2017-12-01T02:50:07.776Z,21.1
2017-12-01T02:52:13.083Z,21.1
2017-12-01T02:54:07.386Z,21.1
2017-12-01T02:56:05.669Z,21.1
2017-12-01T02:58:04.895Z,21.1
2017-12-01T03:00:05.653Z,21.1
2017-12-01T03:02:05.456Z,21.1
2017-12-01T03:04:07.801Z,21.1
2017-12-01T03:06:08.207Z,21.1
2017-12-01T03:08:05.195Z,21.1
2017-12-01T03:10:04.953Z,21.1
2017-12-01T03:12:04.719Z,21.1
2017-12-01T03:14:05.454Z,21
2017-12-01T03:16:06.181Z,21.1
2017-12-01T03:18:05.135Z,21.1
2017-12-01T03:20:04.869Z,21.1
2017-12-01T03:22:05.604Z,21.1
2017-12-01T03:24:07.348Z,21
2017-12-01T03:26:05.091Z,21
2017-12-01T03:28:04.833Z,21.1
2017-12-01T03:30:05.513Z,21.1
2017-12-01T03:32:05.252Z,21
2017-12-01T03:34:05.004Z,21
2017-12-01T03:36:07.258Z,21
2017-12-01T03:38:04.937Z,21
2017-12-01T03:40:04.620Z,21
2017-12-01T03:42:05.336Z,21
2017-12-01T03:44:05.542Z,21
2017-12-01T03:46:07.806Z,21.1
2017-12-01T03:48:07.186Z,21
2017-12-01T03:50:04.883Z,21
2017-12-01T03:52:05.093Z,21
2017-12-01T03:54:04.906Z,21
2017-12-01T03:56:04.686Z,21
2017-12-01T03:58:07.995Z,21
2017-12-01T04:00:04.687Z,21
2017-12-01T04:02:10.572Z,21
2017-12-01T04:04:04.809Z,21
2017-12-01T04:06:05.505Z,21
2017-12-01T04:08:05.243Z,21
2017-12-01T04:10:04.917Z,21
2017-12-01T04:12:05.636Z,21
2017-12-01T04:14:07.928Z,21
2017-12-01T04:16:04.653Z,21
2017-12-01T04:18:05.592Z,21
2017-12-01T04:20:05.276Z,21
2017-12-01T04:22:05.006Z,21
2017-12-01T04:24:04.758Z,21
2017-12-01T04:26:07.496Z,21
2017-12-01T04:28:05.158Z,21
2017-12-01T04:30:04.905Z,21
2017-12-01T04:32:04.636Z,21
2017-12-01T04:34:05.327Z,21
2017-12-01T04:36:05.178Z,21
2017-12-01T04:38:05.365Z,21
2017-12-01T04:40:12.640Z,21
2017-12-01T04:42:05.347Z,21
2017-12-01T04:44:05.048Z,21
2017-12-01T04:46:09.822Z,21
2017-12-01T04:48:05.534Z,21
2017-12-01T04:50:04.754Z,21
2017-12-01T04:52:05.545Z,21
2017-12-01T04:54:07.412Z,21
2017-12-01T04:56:07.809Z,21
2017-12-01T04:58:05.542Z,20.9
2017-12-01T05:00:05.265Z,21
2017-12-01T05:02:04.945Z,21
2017-12-01T05:04:04.643Z,21
2017-12-01T05:06:12.951Z,20.9
2017-12-01T05:08:04.884Z,21
2017-12-01T05:10:05.561Z,20.9
2017-12-01T05:12:04.865Z,21
2017-12-01T05:14:05.575Z,20.9
2017-12-01T05:16:04.833Z,20.9
2017-12-01T05:18:07.354Z,20.9
2017-12-01T05:20:05.089Z,21
2017-12-01T05:22:04.780Z,20.9
2017-12-01T05:24:05.556Z,20.9
2017-12-01T05:26:12.960Z,20.9
2017-12-01T05:28:18.170Z,21
2017-12-01T05:30:08.515Z,20.9
2017-12-01T05:32:08.062Z,21
2017-12-01T05:34:04.791Z,21
2017-12-01T05:36:05.478Z,20.9
2017-12-01T05:38:04.938Z,21
2017-12-01T05:40:12.290Z,21
2017-12-01T05:42:05.158Z,21
2017-12-01T05:44:04.871Z,21
2017-12-01T05:46:05.162Z,20.9
2017-12-01T05:48:07.403Z,21
2017-12-01T05:50:07.133Z,20.9
2017-12-01T05:52:08.044Z,20.9
2017-12-01T05:54:04.920Z,20.9
2017-12-01T05:56:10.678Z,20.9
2017-12-01T05:58:05.465Z,20.9
2017-12-01T06:00:05.691Z,20.9
2017-12-01T06:02:13.181Z,20.9
2017-12-01T06:04:05.429Z,21
2017-12-01T06:06:05.159Z,20.9
2017-12-01T06:08:07.385Z,21
2017-12-01T06:10:05.103Z,20.9
2017-12-01T06:12:05.352Z,20.9
2017-12-01T06:14:05.068Z,20.9
2017-12-01T06:16:04.890Z,21
2017-12-01T06:18:04.919Z,20.9
2017-12-01T06:20:04.586Z,20.9
2017-12-01T06:22:05.323Z,20.9
2017-12-01T06:24:05.069Z,20.9
2017-12-01T06:26:04.844Z,20.9
2017-12-01T06:28:05.633Z,20.9
2017-12-01T06:30:08.045Z,20.9
2017-12-01T06:32:04.756Z,20.9
2017-12-01T06:34:05.010Z,20.9
2017-12-01T06:36:04.741Z,20.9
2017-12-01T06:38:05.482Z,21
2017-12-01T06:40:07.307Z,21
2017-12-01T06:42:05.130Z,20.9
2017-12-01T06:44:07.547Z,20.9
2017-12-01T06:46:05.262Z,20.9
2017-12-01T06:48:05.069Z,21
2017-12-01T06:50:04.833Z,21
2017-12-01T06:52:08.077Z,20.9
2017-12-01T06:54:05.023Z,20.9
2017-12-01T06:56:04.757Z,20.9
2017-12-01T06:58:05.437Z,20.9
2017-12-01T07:00:05.174Z,20.9
2017-12-01T07:02:04.938Z,20.9
2017-12-01T07:04:04.678Z,20.9
2017-12-01T07:06:04.939Z,20.9
2017-12-01T07:08:04.618Z,20.9
2017-12-01T07:10:05.307Z,20.9
2017-12-01T07:12:05.044Z,21
2017-12-01T07:14:04.840Z,20.9
2017-12-01T07:16:08.130Z,20.9
2017-12-01T07:18:10.102Z,20.9
2017-12-01T07:20:05.326Z,20.9
2017-12-01T07:22:05.089Z,20.9
2017-12-01T07:24:04.769Z,20.9
2017-12-01T07:26:05.895Z,20.9
2017-12-01T07:28:07.681Z,20.9
2017-12-01T07:30:09.950Z,20.9
2017-12-01T07:32:07.217Z,21
2017-12-01T07:34:04.965Z,20.9
2017-12-01T07:36:04.730Z,21
2017-12-01T07:38:05.381Z,20.9
2017-12-01T07:40:07.806Z,20.9
2017-12-01T07:42:05.663Z,20.9
2017-12-01T07:44:10.474Z,20.8
2017-12-01T07:46:05.427Z,20.8
2017-12-01T07:48:10.134Z,20.9
2017-12-01T07:50:05.452Z,20.8
2017-12-01T07:52:05.225Z,20.8
2017-12-01T07:54:07.476Z,20.9
2017-12-01T07:56:10.187Z,20.8
2017-12-01T07:58:04.835Z,20.8
2017-12-01T08:00:05.601Z,20.9
2017-12-01T08:02:05.346Z,20.8
2017-12-01T08:04:05.030Z,20.8
2017-12-01T08:06:04.826Z,20.8
2017-12-01T08:08:05.516Z,20.9
2017-12-01T08:10:05.238Z,20.8
2017-12-01T08:12:13.081Z,20.7
2017-12-01T08:14:07.310Z,20.6
2017-12-01T08:16:07.592Z,20.6
2017-12-01T08:18:05.506Z,20.6
2017-12-01T08:20:05.243Z,20.6
2017-12-01T08:22:07.452Z,20.7
2017-12-01T08:24:05.230Z,20.7
2017-12-01T08:26:04.968Z,20.7
2017-12-01T08:28:04.657Z,20.7
2017-12-01T08:30:05.371Z,20.7
2017-12-01T08:32:05.598Z,20.6
2017-12-01T08:34:10.348Z,20.6
2017-12-01T08:36:05.629Z,20.6
2017-12-01T08:38:10.402Z,20.7
2017-12-01T08:40:04.655Z,20.7
2017-12-01T08:42:05.355Z,20.7
2017-12-01T08:44:05.115Z,20.7
2017-12-01T08:46:04.866Z,20.8
2017-12-01T08:48:05.574Z,20.8
2017-12-01T08:50:05.295Z,20.8
2017-12-01T08:52:05.054Z,20.8
2017-12-01T08:54:07.813Z,20.8
2017-12-01T08:56:10.641Z,20.8
2017-12-01T08:58:05.464Z,20.8
2017-12-01T09:00:10.337Z,20.8
2017-12-01T09:02:05.597Z,20.8
2017-12-01T09:04:05.332Z,20.8
2017-12-01T09:06:05.061Z,20.8
2017-12-01T09:08:04.774Z,20.8
2017-12-01T09:10:05.577Z,20.8
2017-12-01T09:12:05.259Z,20.8
2017-12-01T09:14:05.057Z,20.8
2017-12-01T09:16:04.771Z,20.8
2017-12-01T09:18:04.702Z,20.9
2017-12-01T09:20:05.450Z,20.9
2017-12-01T09:22:05.179Z,20.9
2017-12-01T09:24:04.924Z,20.9
2017-12-01T09:26:05.296Z,20.9
2017-12-01T09:28:07.603Z,20.9
2017-12-01T09:30:08.055Z,20.9
2017-12-01T09:32:04.759Z,20.9
2017-12-01T09:34:05.570Z,20.9
2017-12-01T09:36:05.290Z,20.9
2017-12-01T09:38:05.009Z,20.9
2017-12-01T09:40:05.422Z,20.9
2017-12-01T09:42:17.986Z,20.9
2017-12-01T09:44:04.691Z,20.9
2017-12-01T09:46:05.408Z,20.9
2017-12-01T09:48:05.208Z,20.9
2017-12-01T09:50:05.031Z,20.9
2017-12-01T09:52:04.885Z,20.9
2017-12-01T09:54:04.603Z,20.9
2017-12-01T09:56:05.267Z,20.9
2017-12-01T09:58:07.481Z,20.9
2017-12-01T10:00:05.203Z,20.9
2017-12-01T10:02:09.984Z,20.9
2017-12-01T10:04:04.689Z,20.9
2017-12-01T10:06:05.451Z,20.9
2017-12-01T10:08:05.185Z,20.9
2017-12-01T10:10:07.410Z,20.9
2017-12-01T10:12:07.692Z,21
2017-12-01T10:14:05.370Z,21
2017-12-01T10:16:07.635Z,20.9
2017-12-01T10:18:04.664Z,20.9
2017-12-01T10:20:05.630Z,20.9
2017-12-01T10:22:04.871Z,20.9
2017-12-01T10:24:05.579Z,20.9
2017-12-01T10:26:05.318Z,20.8
2017-12-01T10:28:07.591Z,20.8
2017-12-01T10:30:05.325Z,20.8
2017-12-01T10:32:04.734Z,20.9
2017-12-01T10:34:05.514Z,20.9
2017-12-01T10:36:04.745Z,20.9
2017-12-01T10:38:07.548Z,20.9
2017-12-01T10:40:05.266Z,20.9
2017-12-01T10:42:05.009Z,20.9
2017-12-01T10:44:05.313Z,20.9
2017-12-01T10:46:07.580Z,20.9
2017-12-01T10:48:10.340Z,20.9
2017-12-01T10:50:04.999Z,20.9
2017-12-01T10:52:04.675Z,20.9
2017-12-01T10:54:12.958Z,20.9
2017-12-01T10:56:04.693Z,20.9
2017-12-01T10:58:07.920Z,20.9
2017-12-01T11:00:05.616Z,20.9
2017-12-01T11:02:04.822Z,20.9
2017-12-01T11:04:05.550Z,20.9
2017-12-01T11:06:15.403Z,20.9
2017-12-01T11:08:05.117Z,20.9
2017-12-01T11:10:09.852Z,20.9
2017-12-01T11:12:09.768Z,20.9
2017-12-01T11:14:04.613Z,20.9
2017-12-01T11:16:05.351Z,20.9
2017-12-01T11:18:05.260Z,20.9
2017-12-01T11:20:05.599Z,20.9
2017-12-01T11:22:07.860Z,20.9
2017-12-01T11:24:05.536Z,20.9
2017-12-01T11:26:05.218Z,20.9
2017-12-01T11:28:05.010Z,20.9
2017-12-01T11:30:04.749Z,20.9
2017-12-01T11:32:05.473Z,20.9
2017-12-01T11:34:07.750Z,20.9
2017-12-01T11:36:05.429Z,20.9
2017-12-01T11:38:05.105Z,21
2017-12-01T11:40:04.894Z,20.9
2017-12-01T11:42:04.652Z,20.9
2017-12-01T11:44:09.935Z,20.9
2017-12-01T11:46:04.802Z,20.9
2017-12-01T11:48:08.251Z,20.9
2017-12-01T11:50:05.078Z,20.9
2017-12-01T11:52:07.291Z,20.9
2017-12-01T11:54:12.546Z,20.9
2017-12-01T11:56:05.234Z,20.9
2017-12-01T11:58:04.941Z,21
2017-12-01T12:00:04.659Z,20.9
2017-12-01T12:02:05.435Z,20.9
2017-12-01T12:04:05.394Z,20.9
2017-12-01T12:06:07.639Z,20.9
2017-12-01T12:08:10.437Z,20.9
2017-12-01T12:10:05.148Z,20.9
2017-12-01T12:12:04.915Z,20.9
2017-12-01T12:14:07.169Z,20.9
2017-12-01T12:16:04.906Z,20.9
2017-12-01T12:18:04.816Z,20.9
2017-12-01T12:20:08.086Z,20.9
2017-12-01T12:22:04.817Z,20.9
2017-12-01T12:24:09.738Z,20.9
2017-12-01T12:26:05.541Z,20.9
2017-12-01T12:28:05.272Z,20.9
2017-12-01T12:30:04.981Z,20.9
2017-12-01T12:32:04.685Z,21
2017-12-01T12:34:04.904Z,21
2017-12-01T12:36:05.688Z,21
2017-12-01T12:38:05.403Z,21
2017-12-01T12:40:05.184Z,21
2017-12-01T12:42:04.875Z,21
2017-12-01T12:44:13.126Z,21
2017-12-01T12:46:04.880Z,21
2017-12-01T12:48:10.657Z,21
2017-12-01T12:50:10.452Z,21
2017-12-01T12:52:07.289Z,21
2017-12-01T12:54:05.034Z,21
2017-12-01T12:56:04.810Z,21
2017-12-01T12:58:05.571Z,21
2017-12-01T13:00:05.294Z,21
2017-12-01T13:02:04.978Z,21
2017-12-01T13:04:04.644Z,21
2017-12-01T13:06:05.359Z,21
2017-12-01T13:08:05.088Z,21
2017-12-01T13:10:04.985Z,21
2017-12-01T13:12:04.726Z,21
2017-12-01T13:14:05.411Z,21
2017-12-01T13:16:07.674Z,21
2017-12-01T13:18:05.617Z,21
2017-12-01T13:20:05.271Z,21
2017-12-01T13:22:04.986Z,21
2017-12-01T13:24:04.717Z,21
2017-12-01T13:26:05.419Z,21
2017-12-01T13:28:10.168Z,21
2017-12-01T13:30:05.631Z,21
2017-12-01T13:32:04.906Z,21
2017-12-01T13:34:05.616Z,21
2017-12-01T13:36:05.401Z,21
2017-12-01T13:38:05.093Z,21
2017-12-01T13:40:07.349Z,21
2017-12-01T13:42:07.581Z,21
2017-12-01T13:44:05.362Z,21
2017-12-01T13:46:05.092Z,21
2017-12-01T13:48:04.840Z,21
2017-12-01T13:50:05.516Z,21
2017-12-01T13:52:05.234Z,21
2017-12-01T13:54:05.600Z,21
2017-12-01T13:56:05.325Z,21
2017-12-01T13:58:05.086Z,21
2017-12-01T14:00:04.814Z,21
2017-12-01T14:02:05.516Z,21
2017-12-01T14:04:05.210Z,21
2017-12-01T14:06:04.942Z,21.1
2017-12-01T14:08:04.676Z,21.1
2017-12-01T14:10:04.905Z,21
2017-12-01T14:12:08.170Z,21.1
2017-12-01T14:14:05.377Z,21.1
2017-12-01T14:16:05.068Z,21.1
2017-12-01T14:18:05.145Z,21.1
2017-12-01T14:20:04.844Z,21.1
2017-12-01T14:22:05.540Z,21.1
2017-12-01T14:24:05.243Z,21.1
2017-12-01T14:26:05.029Z,21.1
2017-12-01T14:28:04.827Z,21.1
2017-12-01T14:30:05.568Z,21.1
2017-12-01T14:32:07.849Z,21.1
2017-12-01T14:34:08.327Z,21.1
2017-12-01T14:36:07.564Z,21.1
2017-12-01T14:38:05.504Z,21.1
2017-12-01T14:40:05.210Z,21.1
2017-12-01T14:42:05.525Z,21.1
2017-12-01T14:44:05.255Z,21.1
2017-12-01T14:46:05.487Z,21.1
2017-12-01T14:48:04.724Z,21.1
2017-12-01T14:50:07.939Z,21.1
2017-12-01T14:52:05.217Z,21.1
2017-12-01T14:54:04.921Z,21.1
2017-12-01T14:56:05.609Z,21.1
2017-12-01T14:58:04.866Z,21.1
2017-12-01T15:00:05.614Z,21.1
2017-12-01T15:02:05.288Z,21.1
2017-12-01T15:04:07.492Z,21
2017-12-01T15:06:07.716Z,21
2017-12-01T15:08:05.563Z,21
2017-12-01T15:10:05.286Z,21
2017-12-01T15:12:05.042Z,21
2017-12-01T15:14:04.787Z,21
2017-12-01T15:16:05.450Z,21
2017-12-01T15:18:05.017Z,21
2017-12-01T15:20:04.727Z,21
2017-12-01T15:22:05.461Z,21
2017-12-01T15:24:05.241Z,21
2017-12-01T15:26:05.005Z,19.4
2017-12-01T15:28:04.713Z,21
2017-12-01T15:30:05.398Z,21
2017-12-01T15:32:08.104Z,21
2017-12-01T15:34:04.758Z,21
2017-12-01T15:36:07.471Z,21
2017-12-01T15:38:05.134Z,21
2017-12-01T15:40:04.889Z,21.1
2017-12-01T15:42:05.587Z,21
2017-12-01T15:44:05.243Z,21
2017-12-01T15:46:04.975Z,21
2017-12-01T15:48:04.684Z,21
2017-12-01T15:50:05.414Z,21
2017-12-01T15:52:04.816Z,21
2017-12-01T15:54:08.124Z,21
2017-12-01T15:56:04.803Z,21
2017-12-01T15:58:05.495Z,21
2017-12-01T16:00:05.159Z,21
2017-12-01T16:02:04.946Z,21
2017-12-01T16:04:05.211Z,21
2017-12-01T16:06:05.427Z,21
2017-12-01T16:08:07.193Z,21
2017-12-01T16:10:07.483Z,21
2017-12-01T16:12:07.739Z,21
2017-12-01T16:14:04.676Z,21
2017-12-01T16:16:05.360Z,21
2017-12-01T16:18:07.347Z,21
2017-12-01T16:20:12.823Z,21
2017-12-01T16:22:04.764Z,21
2017-12-01T16:24:05.531Z,21
2017-12-01T16:26:05.213Z,21
2017-12-01T16:28:05.271Z,21
2017-12-01T16:30:04.997Z,21
2017-12-01T16:32:04.724Z,21
2017-12-01T16:34:07.925Z,21
2017-12-01T16:36:05.613Z,21
2017-12-01T16:38:05.422Z,21
2017-12-01T16:40:05.142Z,21
2017-12-01T16:42:04.855Z,21
2017-12-01T16:44:05.573Z,21
2017-12-01T16:46:05.284Z,21
2017-12-01T16:48:07.519Z,21
2017-12-01T16:50:05.248Z,21
2017-12-01T16:52:04.945Z,21
2017-12-01T16:54:04.671Z,21
2017-12-01T16:56:07.928Z,21
2017-12-01T16:58:07.836Z,21
2017-12-01T17:00:05.566Z,21
2017-12-01T17:02:07.838Z,21
2017-12-01T17:04:07.629Z,21
2017-12-01T17:06:05.379Z,21
2017-12-01T17:08:04.621Z,21
2017-12-01T17:10:05.355Z,21
2017-12-01T17:12:05.289Z,21
2017-12-01T17:14:07.547Z,21
2017-12-01T17:16:07.765Z,21
2017-12-01T17:18:04.779Z,21
2017-12-01T17:20:05.549Z,21
2017-12-01T17:22:05.196Z,21
2017-12-01T17:24:04.661Z,21
2017-12-01T17:26:07.875Z,21
2017-12-01T17:28:04.984Z,21
2017-12-01T17:30:04.717Z,21
2017-12-01T17:32:07.950Z,21
2017-12-01T17:34:05.187Z,21
2017-12-01T17:36:04.879Z,21
2017-12-01T17:38:05.590Z,21
2017-12-01T17:40:07.855Z,21
2017-12-01T17:42:12.672Z,21
2017-12-01T17:44:05.366Z,21
2017-12-01T17:46:05.091Z,21
2017-12-01T17:48:04.882Z,21
2017-12-01T17:50:05.767Z,21
2017-12-01T17:52:05.020Z,21
2017-12-01T17:54:04.793Z,21
2017-12-01T17:56:08.046Z,21
2017-12-01T17:58:04.775Z,21
2017-12-01T18:00:05.469Z,21
2017-12-01T18:02:05.176Z,21
2017-12-01T18:04:05.428Z,21
2017-12-01T18:06:15.272Z,21
2017-12-01T18:08:05.494Z,21
2017-12-01T18:10:05.206Z,21
2017-12-01T18:12:04.897Z,21
2017-12-01T18:14:05.576Z,21
2017-12-01T18:16:05.360Z,21
2017-12-01T18:18:05.275Z,21
2017-12-01T18:20:04.993Z,21
2017-12-01T18:22:04.902Z,21
2017-12-01T18:24:05.801Z,21
2017-12-01T18:26:05.551Z,21
2017-12-01T18:28:05.287Z,21
2017-12-01T18:30:07.790Z,21
2017-12-01T18:32:08.078Z,21
2017-12-01T18:34:05.128Z,21
2017-12-01T18:36:04.696Z,21
2017-12-01T18:38:05.642Z,21
2017-12-01T18:40:07.794Z,21
2017-12-01T18:42:04.981Z,21
2017-12-01T18:44:08.136Z,21
2017-12-01T18:46:07.411Z,21
2017-12-01T18:48:05.055Z,21
2017-12-01T18:50:07.346Z,21
2017-12-01T18:52:06.256Z,21
2017-12-01T18:54:10.351Z,21
2017-12-01T18:56:04.933Z,21
2017-12-01T18:58:05.077Z,21
2017-12-01T19:00:05.328Z,21
2017-12-01T19:02:05.018Z,21
2017-12-01T19:04:05.045Z,21
2017-12-01T19:06:05.231Z,21
2017-12-01T19:08:05.156Z,21
2017-12-01T19:10:06.219Z,21
2017-12-01T19:12:05.002Z,21
2017-12-01T19:14:05.454Z,21
2017-12-01T19:16:04.784Z,21
2017-12-01T19:18:05.276Z,21
2017-12-01T19:20:05.241Z,21
2017-12-01T19:22:05.003Z,21
2017-12-01T19:24:04.746Z,21
2017-12-01T19:26:05.606Z,21
2017-12-01T19:28:05.317Z,21
2017-12-01T19:30:05.321Z,21
2017-12-01T19:32:05.330Z,21
2017-12-01T19:34:08.082Z,21
2017-12-01T19:36:04.983Z,21
2017-12-01T19:38:10.722Z,21
2017-12-01T19:40:04.649Z,21
2017-12-01T19:42:09.795Z,21
2017-12-01T19:44:08.128Z,21
2017-12-01T19:46:04.878Z,21.1
2017-12-01T19:48:05.157Z,21
2017-12-01T19:50:10.093Z,21
2017-12-01T19:52:04.977Z,21
2017-12-01T19:54:04.924Z,21
2017-12-01T19:56:05.399Z,21
2017-12-01T19:58:05.114Z,21
2017-12-01T20:00:11.387Z,21
2017-12-01T20:02:07.393Z,21
2017-12-01T20:04:05.107Z,21
2017-12-01T20:06:05.359Z,21
2017-12-01T20:08:05.202Z,21
2017-12-01T20:10:04.939Z,21
2017-12-01T20:12:04.680Z,21
2017-12-01T20:14:05.380Z,21
2017-12-01T20:16:04.591Z,21
2017-12-01T20:18:05.019Z,21
2017-12-01T20:20:04.737Z,21
2017-12-01T20:22:07.989Z,21
2017-12-01T20:24:07.366Z,21
2017-12-01T20:26:07.675Z,21
2017-12-01T20:28:04.935Z,21
2017-12-01T20:30:05.629Z,21
2017-12-01T20:32:05.425Z,21
2017-12-01T20:34:07.633Z,21
2017-12-01T20:36:07.965Z,21
2017-12-01T20:38:04.696Z,21
2017-12-01T20:40:04.905Z,21
2017-12-01T20:42:05.122Z,21
2017-12-01T20:44:07.461Z,21
2017-12-01T20:46:04.716Z,21
2017-12-01T20:48:10.055Z,21
2017-12-01T20:50:04.823Z,21
2017-12-01T20:52:04.775Z,21
2017-12-01T20:54:07.501Z,21
2017-12-01T20:56:07.284Z,21
2017-12-01T20:58:04.972Z,21
2017-12-01T21:00:04.661Z,21
2017-12-01T21:02:12.976Z,21
2017-12-01T21:04:04.643Z,21
2017-12-01T21:06:05.363Z,21
2017-12-01T21:08:07.656Z,21
2017-12-01T21:10:05.339Z,21
2017-12-01T21:12:05.086Z,21
2017-12-01T21:14:05.341Z,21
2017-12-01T21:16:05.026Z,21
2017-12-01T21:18:04.959Z,21
2017-12-01T21:20:04.649Z,21
2017-12-01T21:22:05.371Z,21
2017-12-01T21:24:04.671Z,21
2017-12-01T21:26:05.355Z,20.9
2017-12-01T21:28:05.080Z,21
2017-12-01T21:30:12.327Z,21
2017-12-01T21:32:05.515Z,21
2017-12-01T21:34:05.195Z,21
2017-12-01T21:36:05.536Z,21
2017-12-01T21:38:07.786Z,21
2017-12-01T21:40:05.450Z,21
2017-12-01T21:42:17.810Z,21
2017-12-01T21:44:04.791Z,21
2017-12-01T21:46:05.576Z,21
2017-12-01T21:48:07.794Z,21
2017-12-01T21:50:08.044Z,21
2017-12-01T21:52:04.704Z,21
2017-12-01T21:54:05.438Z,21
2017-12-01T21:56:05.247Z,21
2017-12-01T21:58:05.045Z,21
2017-12-01T22:00:04.927Z,21
2017-12-01T22:02:04.697Z,21
2017-12-01T22:04:05.431Z,21
2017-12-01T22:06:05.151Z,21
2017-12-01T22:08:04.816Z,21
2017-12-01T22:10:10.557Z,21
2017-12-01T22:12:07.853Z,21
2017-12-01T22:14:05.586Z,21
2017-12-01T22:16:07.320Z,21
2017-12-01T22:18:05.186Z,21
2017-12-01T22:20:04.831Z,21
2017-12-01T22:22:05.542Z,21
2017-12-01T22:24:06.359Z,21
2017-12-01T22:26:07.584Z,21
2017-12-01T22:28:05.381Z,21
2017-12-01T22:30:05.088Z,21
2017-12-01T22:32:04.810Z,21
2017-12-01T22:34:05.570Z,21
2017-12-01T22:36:07.371Z,21
2017-12-01T22:38:05.049Z,21
2017-12-01T22:40:04.741Z,21
2017-12-01T22:42:05.453Z,21
2017-12-01T22:44:10.396Z,21
2017-12-01T22:46:05.154Z,21
2017-12-01T22:48:04.848Z,21
2017-12-01T22:50:07.582Z,21
2017-12-01T22:52:05.303Z,21
2017-12-01T22:54:08.890Z,21
2017-12-01T22:56:07.957Z,21
2017-12-01T22:58:04.667Z,21
2017-12-01T23:00:10.499Z,21
2017-12-01T23:02:05.217Z,21
2017-12-01T23:04:04.961Z,21
2017-12-01T23:06:04.638Z,21
2017-12-01T23:08:05.414Z,21
2017-12-01T23:10:05.102Z,21
2017-12-01T23:12:04.799Z,21
2017-12-01T23:14:05.521Z,21
2017-12-01T23:16:05.256Z,20.9
2017-12-01T23:18:05.160Z,21
2017-12-01T23:20:07.430Z,20.9
2017-12-01T23:22:05.195Z,20.9
2017-12-01T23:24:04.662Z,20.9
2017-12-01T23:26:05.398Z,20.9
2017-12-01T23:28:10.210Z,20.9
2017-12-01T23:30:05.051Z,20.9
2017-12-01T23:32:04.962Z,20.9
2017-12-01T23:34:09.721Z,20.9
2017-12-01T23:36:05.464Z,20.9
2017-12-01T23:38:05.174Z,21
2017-12-01T23:40:04.897Z,20.9
2017-12-01T23:42:08.173Z,20.9
2017-12-01T23:44:04.874Z,20.9
2017-12-01T23:46:05.595Z,20.9
2017-12-01T23:48:04.801Z,20.9
2017-12-01T23:50:05.472Z,20.9
2017-12-01T23:52:07.284Z,20.9
2017-12-01T23:54:04.976Z,20.9
2017-12-01T23:56:04.668Z,20.9
2017-12-01T23:58:05.368Z,20.9
